Time;durP1;ratioP1;P1;durP2;ratioP2;P2;SDS_P1;SDS_P2;PMS_P1;PMS_P2;Temp;Humidity;BMP_temperature;BMP_pressure;BME280_temperature;BME280_humidity;BME280_pressure;Samples;Min_cycle;Max_cycle;Signal;HPM_P1;HPM_P2
2021/09/06 00:02:05;;;;;;;6.00;3.15;;;;;;;17.12;37.23;99796.91;5036598;28;20121;-76
2021/09/06 00:04:32;;;;;;;7.93;3.25;;;;;;;17.41;37.27;99788.63;5020365;28;20119;-76
2021/09/06 00:06:58;;;;;;;4.47;3.00;;;;;;;17.18;37.32;99790.75;5052971;28;20534;-77
2021/09/06 00:09:24;;;;;;;4.47;3.20;;;;;;;17.20;36.99;99777.97;5053486;28;20482;-77
2021/09/06 00:11:50;;;;;;;3.83;2.90;;;;;;;17.21;37.17;99797.59;5020041;28;20508;-75
2021/09/06 00:14:17;;;;;;;8.80;3.20;;;;;;;17.28;37.10;99791.25;5020136;28;20044;-75
2021/09/06 00:16:42;;;;;;;6.75;3.20;;;;;;;17.27;37.18;99796.78;5036498;28;20474;-76
2021/09/06 00:19:08;;;;;;;5.28;2.92;;;;;;;17.38;36.63;99790.88;5019989;28;20048;-77
2021/09/06 00:21:35;;;;;;;3.40;2.65;;;;;;;17.37;36.77;99791.91;5053381;28;20059;-77
2021/09/06 00:24:01;;;;;;;3.72;2.72;;;;;;;17.35;36.83;99791.28;5020204;28;20040;-77
2021/09/06 00:26:28;;;;;;;3.75;2.70;;;;;;;17.41;36.61;99785.94;5019709;28;20416;-76
2021/09/06 00:28:55;;;;;;;4.35;2.53;;;;;;;17.58;36.65;99787.31;5053207;28;20080;-77
2021/09/06 00:31:21;;;;;;;7.18;2.78;;;;;;;17.38;36.85;99783.66;5052990;28;20565;-76
2021/09/06 00:33:47;;;;;;;2.85;2.28;;;;;;;17.40;36.61;99788.84;5052384;28;20044;-76
2021/09/06 00:36:13;;;;;;;3.70;2.45;;;;;;;17.44;36.46;99787.44;5033761;28;20040;-77
2021/09/06 00:38:39;;;;;;;4.53;2.53;;;;;;;17.49;36.31;99785.00;5033933;28;20406;-76
2021/09/06 00:41:05;;;;;;;5.55;2.72;;;;;;;17.49;36.12;99787.66;5017577;28;20051;-76
2021/09/06 00:43:31;;;;;;;7.35;2.63;;;;;;;17.53;36.40;99784.38;5017642;28;20068;-76
2021/09/06 00:45:58;;;;;;;4.25;2.30;;;;;;;17.44;36.30;99785.59;5033944;28;20048;-76
2021/09/06 00:48:26;;;;;;;3.85;2.35;;;;;;;17.43;36.21;99777.69;5033857;28;20040;-76
2021/09/06 00:50:53;;;;;;;3.53;2.40;;;;;;;17.67;36.07;99780.75;5035061;28;20049;-76
2021/09/06 00:53:20;;;;;;;3.55;2.35;;;;;;;17.56;36.08;99784.00;5036410;28;20075;-76
2021/09/06 00:55:46;;;;;;;5.88;2.50;;;;;;;17.52;36.07;99779.22;5052883;28;20083;-75
2021/09/06 00:58:13;;;;;;;5.60;2.63;;;;;;;17.66;35.94;99797.06;5052472;28;20113;-75
2021/09/06 01:00:39;;;;;;;4.22;2.13;;;;;;;17.71;35.68;99802.69;5052304;28;20515;-75
2021/09/06 01:03:06;;;;;;;4.85;2.30;;;;;;;17.61;35.93;99792.28;5019853;28;20040;-76
2021/09/06 01:05:34;;;;;;;4.40;2.10;;;;;;;17.75;35.54;99806.59;5036437;28;20048;-75
2021/09/06 01:08:18;;;;;;;5.55;2.20;;;;;;;17.73;35.57;99800.59;5040951;28;20048;-75
2021/09/06 01:11:14;;;;;;;5.18;2.20;;;;;;;17.73;35.69;99797.91;5028412;28;20134;-75
2021/09/06 01:14:07;;;;;;;4.50;2.22;;;;;;;17.69;35.69;99810.09;5042414;28;20048;-75
2021/09/06 01:16:37;;;;;;;4.70;2.40;;;;;;;17.60;35.82;99800.56;5023432;28;20091;-76
2021/09/06 01:19:04;;;;;;;7.05;2.17;;;;;;;17.54;35.90;99795.97;5038769;28;20337;-75
2021/09/06 01:21:31;;;;;;;8.45;2.20;;;;;;;17.49;35.94;99791.19;5054501;28;20515;-75
2021/09/06 01:24:35;;;;;;;3.08;2.10;;;;;;;17.54;35.85;99798.66;5031801;28;20138;-76
2021/09/06 01:27:03;;;;;;;2.92;1.90;;;;;;;17.51;35.77;99799.06;5038385;28;20060;-75
2021/09/06 01:29:29;;;;;;;2.97;1.90;;;;;;;17.50;35.88;99797.38;5022332;28;20421;-76
2021/09/06 01:31:58;;;;;;;4.10;1.70;;;;;;;17.45;35.91;99797.97;5056350;28;20044;-77
2021/09/06 01:34:25;;;;;;;5.30;2.00;;;;;;;17.48;35.91;99800.25;5023187;28;20614;-77
2021/09/06 01:36:56;;;;;;;3.92;2.17;;;;;;;17.53;35.74;99805.06;5024145;28;20557;-76
2021/09/06 01:39:22;;;;;;;2.75;1.80;;;;;;;17.58;35.67;99807.97;5022983;28;20044;-78
2021/09/06 01:41:48;;;;;;;6.45;2.08;;;;;;;17.68;35.26;99803.06;5039156;28;20066;-77
2021/09/06 01:44:16;;;;;;;2.88;2.00;;;;;;;17.70;35.26;99807.22;5022988;28;20063;-78
2021/09/06 01:46:43;;;;;;;3.78;2.10;;;;;;;17.64;35.55;99807.16;5022845;28;20119;-78
2021/09/06 01:49:09;;;;;;;4.25;2.00;;;;;;;17.61;35.37;99818.31;5039393;28;20500;-78
2021/09/06 01:51:36;;;;;;;2.38;1.80;;;;;;;17.62;35.40;99814.63;5039579;28;20105;-77
2021/09/06 01:54:02;;;;;;;2.90;2.08;;;;;;;17.55;35.53;99813.72;5038944;28;20077;-78
2021/09/06 01:56:28;;;;;;;3.65;1.92;;;;;;;17.58;35.83;99819.56;5022453;28;20038;-78
2021/09/06 01:58:58;;;;;;;4.93;2.17;;;;;;;17.82;35.46;99820.91;5023095;28;20044;-80
2021/09/06 02:01:24;;;;;;;5.32;2.13;;;;;;;17.60;35.94;99813.97;5022364;28;20561;-78
2021/09/06 02:03:50;;;;;;;5.82;2.25;;;;;;;17.44;35.98;99822.34;5055341;28;20040;-78
2021/09/06 02:06:16;;;;;;;5.68;2.50;;;;;;;17.44;35.87;99822.34;5038578;28;20047;-78
2021/09/06 02:09:14;;;;;;;2.65;2.17;;;;;;;17.54;35.57;99825.50;5044227;28;20144;-79
2021/09/06 02:11:41;;;;;;;4.35;2.30;;;;;;;17.67;35.59;99825.56;5072261;28;20048;-77
2021/09/06 02:14:10;;;;;;;4.40;1.85;;;;;;;17.56;35.81;99824.28;5039399;28;20040;-78
2021/09/06 02:16:36;;;;;;;8.70;2.10;;;;;;;17.57;35.80;99820.59;5055157;28;20046;-79
2021/09/06 02:19:09;;;;;;;7.95;2.65;;;;;;;17.54;35.80;99817.47;5040331;28;20131;-76
2021/09/06 02:21:41;;;;;;;6.13;2.05;;;;;;;17.41;36.09;99823.53;5039308;28;20466;-76
2021/09/06 02:24:07;;;;;;;10.15;2.13;;;;;;;17.48;36.09;99829.81;5055015;28;20139;-77
2021/09/06 02:26:36;;;;;;;4.47;2.40;;;;;;;17.53;35.74;99827.38;5022208;28;20045;-76
2021/09/06 02:29:09;;;;;;;5.07;2.40;;;;;;;17.49;35.96;99836.00;5039246;28;20068;-76
2021/09/06 02:31:39;;;;;;;3.22;2.35;;;;;;;17.65;35.61;99831.16;5038850;28;20520;-75
2021/09/06 02:34:28;;;;;;;8.15;2.30;;;;;;;17.58;35.70;99834.81;5035075;28;20052;-75
2021/09/06 02:36:54;;;;;;;3.58;2.33;;;;;;;17.54;35.71;99837.09;5029700;28;20051;-76
2021/09/06 02:39:23;;;;;;;4.25;2.20;;;;;;;17.62;35.73;99842.28;5032178;28;20044;-75
2021/09/06 02:41:49;;;;;;;4.60;2.08;;;;;;;17.63;35.66;99843.97;5031946;28;20041;-75
2021/09/06 02:44:15;;;;;;;2.45;1.90;;;;;;;17.64;35.38;99850.97;5014976;28;20036;-75
2021/09/06 02:46:42;;;;;;;3.22;2.17;;;;;;;17.62;35.68;99847.66;5015253;28;20187;-76
2021/09/06 02:49:09;;;;;;;5.13;2.10;;;;;;;17.65;35.74;99846.44;5016277;28;20123;-75
2021/09/06 02:51:35;;;;;;;3.47;2.00;;;;;;;17.62;35.59;99852.22;5034169;28;20045;-76
2021/09/06 02:54:02;;;;;;;7.15;2.70;;;;;;;17.70;35.64;99854.72;5017583;28;20052;-76
2021/09/06 02:56:28;;;;;;;3.63;2.15;;;;;;;17.70;35.51;99852.03;5001382;28;20052;-75
2021/09/06 02:58:54;;;;;;;7.25;2.55;;;;;;;17.58;35.76;99854.47;5017620;28;20416;-75
2021/09/06 03:01:22;;;;;;;5.22;1.77;;;;;;;17.61;35.71;99858.59;5001718;28;20051;-76
2021/09/06 03:03:48;;;;;;;4.38;2.50;;;;;;;17.52;35.83;99871.38;5034089;28;20067;-76
2021/09/06 03:06:15;;;;;;;3.72;2.03;;;;;;;17.51;35.90;99861.66;5001144;28;20045;-76
2021/09/06 03:08:43;;;;;;;5.10;2.03;;;;;;;17.60;35.79;99873.06;5017917;28;20045;-76
2021/09/06 03:11:09;;;;;;;11.18;2.65;;;;;;;17.65;35.70;99871.44;5017339;28;20032;-73
2021/09/06 03:13:37;;;;;;;6.07;2.03;;;;;;;17.74;35.15;99872.97;5017811;28;20045;-73
2021/09/06 03:16:03;;;;;;;5.32;2.40;;;;;;;17.86;35.37;99876.75;5033622;28;20099;-73
2021/09/06 03:18:30;;;;;;;6.25;2.30;;;;;;;17.69;35.47;99871.88;5000949;28;20048;-74
2021/09/06 03:21:25;;;;;;;3.05;1.85;;;;;;;17.77;35.38;99886.00;5021120;28;20044;-70
2021/09/06 03:23:54;;;;;;;2.72;1.88;;;;;;;17.81;35.14;99891.78;5017205;28;20047;-70
2021/09/06 03:26:21;;;;;;;4.10;1.90;;;;;;;17.85;35.06;99880.44;5004461;28;20515;-70
2021/09/06 03:28:48;;;;;;;2.30;1.95;;;;;;;18.02;34.85;99881.78;5024305;28;20056;-76
2021/09/06 03:31:17;;;;;;;2.42;1.92;;;;;;;18.12;34.89;99881.41;5050089;28;20044;-70
2021/09/06 03:33:43;;;;;;;3.30;2.28;;;;;;;18.02;35.04;99891.72;5000737;28;20045;-71
2021/09/06 03:36:09;;;;;;;4.93;1.98;;;;;;;17.99;34.90;99886.75;5000547;28;20049;-73
2021/09/06 03:38:37;;;;;;;5.05;2.20;;;;;;;17.99;34.90;99892.13;5000954;28;20037;-69
2021/09/06 03:41:03;;;;;;;5.20;1.88;;;;;;;18.02;34.81;99875.59;5021308;28;20043;-76
2021/09/06 03:43:33;;;;;;;4.93;2.05;;;;;;;18.14;34.74;99882.84;5019258;28;20037;-73
2021/09/06 03:46:00;;;;;;;2.92;2.03;;;;;;;18.22;34.49;99888.06;5019086;28;20044;-73
2021/09/06 03:48:27;;;;;;;7.43;2.20;;;;;;;18.17;34.80;99887.03;5035192;28;20052;-75
2021/09/06 03:50:56;;;;;;;3.25;2.00;;;;;;;18.17;34.86;99895.91;5033633;28;20042;-67
2021/09/06 03:53:22;;;;;;;5.43;2.58;;;;;;;18.25;34.56;99892.22;5048655;28;20582;-66
2021/09/06 03:55:49;;;;;;;5.70;2.40;;;;;;;18.16;34.70;99899.63;5017082;28;20045;-65
2021/09/06 03:58:17;;;;;;;4.03;1.98;;;;;;;18.24;34.71;99895.94;5034086;28;20044;-67
2021/09/06 04:00:43;;;;;;;5.75;3.22;;;;;;;18.33;34.58;99903.63;5033624;28;20059;-67
2021/09/06 04:03:13;;;;;;;6.18;2.60;;;;;;;18.37;34.81;99869.94;5051788;28;20048;-67
2021/09/06 04:05:40;;;;;;;4.72;2.22;;;;;;;18.41;34.69;99898.09;5034459;28;20454;-67
2021/09/06 04:08:07;;;;;;;4.53;2.17;;;;;;;18.36;34.45;99889.78;5035703;28;20931;-67
2021/09/06 04:10:33;;;;;;;6.35;2.45;;;;;;;18.42;34.45;99896.22;5068838;28;20040;-67
2021/09/06 04:13:00;;;;;;;5.22;2.03;;;;;;;18.52;34.40;99901.22;5035561;28;20040;-66
2021/09/06 04:15:27;;;;;;;5.28;2.15;;;;;;;18.52;34.21;99894.00;5035903;28;20127;-68
2021/09/06 04:17:54;;;;;;;3.20;2.20;;;;;;;18.54;34.12;99902.72;5035771;28;20488;-67
2021/09/06 04:20:20;;;;;;;6.95;2.15;;;;;;;18.58;34.24;99900.41;5035459;28;20040;-67
2021/09/06 04:22:48;;;;;;;3.90;2.20;;;;;;;18.64;34.00;99897.75;5035791;28;20434;-67
2021/09/06 04:25:15;;;;;;;9.02;2.65;;;;;;;18.64;34.05;99897.75;5036064;28;20049;-65
2021/09/06 04:27:42;;;;;;;2.70;2.20;;;;;;;18.65;34.25;99902.09;5035411;28;20056;-65
2021/09/06 04:30:13;;;;;;;5.10;2.50;;;;;;;18.59;34.38;99891.34;5037083;28;20135;-67
2021/09/06 04:32:41;;;;;;;9.70;2.60;;;;;;;18.54;34.20;99893.78;5035734;28;20159;-66
2021/09/06 04:35:07;;;;;;;4.78;2.50;;;;;;;18.69;33.98;99887.22;5051754;28;20127;-65
2021/09/06 04:37:34;;;;;;;5.30;2.10;;;;;;;18.66;33.84;99897.53;5035619;28;20052;-65
2021/09/06 04:40:03;;;;;;;3.30;2.13;;;;;;;18.70;33.99;99896.94;5035943;28;20504;-66
2021/09/06 04:42:33;;;;;;;3.20;2.17;;;;;;;18.80;33.73;99904.63;5052658;28;20531;-66
2021/09/06 04:45:00;;;;;;;5.95;1.95;;;;;;;19.00;33.23;99909.00;5054336;28;20058;-65
2021/09/06 04:47:26;;;;;;;5.03;2.33;;;;;;;19.04;33.08;99902.16;5072677;28;20044;-65
2021/09/06 04:49:53;;;;;;;7.00;2.20;;;;;;;19.45;32.96;99908.22;5038777;28;20051;-66
2021/09/06 04:52:22;;;;;;;3.53;2.00;;;;;;;19.35;33.07;99909.66;5038694;28;20135;-66
2021/09/06 04:54:48;;;;;;;7.00;2.97;;;;;;;19.18;33.39;99911.06;5038636;28;20053;-66
2021/09/06 04:57:14;;;;;;;2.35;1.95;;;;;;;19.37;32.71;99910.28;5038621;28;20072;-68
2021/09/06 04:59:41;;;;;;;7.57;2.30;;;;;;;19.38;32.50;99912.78;5054873;28;20520;-66
2021/09/06 05:02:08;;;;;;;4.45;2.15;;;;;;;19.43;32.79;99910.31;5021595;28;20045;-66
2021/09/06 05:04:34;;;;;;;6.05;2.17;;;;;;;19.30;32.67;99920.22;5055487;28;20098;-71
2021/09/06 05:07:01;;;;;;;2.63;2.08;;;;;;;19.31;32.67;99920.03;5039297;28;20516;-73
2021/09/06 05:09:27;;;;;;;7.28;2.38;;;;;;;19.26;32.64;99913.56;5037959;28;20078;-73
2021/09/06 05:11:53;;;;;;;3.70;2.25;;;;;;;19.24;32.97;99911.09;5019811;28;20051;-72
2021/09/06 05:14:19;;;;;;;10.15;2.60;;;;;;;19.26;32.62;99911.72;5019605;28;20059;-70
2021/09/06 05:16:45;;;;;;;6.60;2.00;;;;;;;19.19;32.86;99918.16;5036900;28;20052;-72
2021/09/06 05:19:13;;;;;;;3.05;2.28;;;;;;;19.23;32.68;99919.38;5036095;28;20093;-65
2021/09/06 05:21:39;;;;;;;7.80;2.70;;;;;;;19.29;32.88;99913.19;5036193;28;20036;-65
2021/09/06 05:24:06;;;;;;;4.13;2.20;;;;;;;19.36;32.57;99914.84;5036890;28;20048;-65
2021/09/06 05:26:33;;;;;;;4.80;2.70;;;;;;;19.36;32.50;99919.41;5054174;28;20529;-65
2021/09/06 05:28:59;;;;;;;5.32;2.10;;;;;;;19.29;32.76;99913.19;5055314;28;20050;-64
2021/09/06 05:31:26;;;;;;;3.75;2.22;;;;;;;19.43;32.72;99915.69;5022217;28;20048;-65
2021/09/06 05:33:52;;;;;;;4.10;2.00;;;;;;;19.48;32.46;99923.94;5055192;28;20047;-64
2021/09/06 05:36:18;;;;;;;6.90;2.30;;;;;;;19.56;32.22;99904.88;5038758;28;20131;-65
2021/09/06 05:38:44;;;;;;;5.43;2.20;;;;;;;19.63;31.88;99921.88;5038688;28;20147;-65
2021/09/06 05:41:34;;;;;;;4.65;2.40;;;;;;;19.79;32.07;99921.44;5043391;28;20052;-65
2021/09/06 05:44:04;;;;;;;4.28;2.17;;;;;;;19.98;31.45;99927.81;5022031;28;20504;-65
2021/09/06 05:46:31;;;;;;;3.38;2.28;;;;;;;20.12;31.33;99924.06;5071053;28;20442;-73
2021/09/06 05:48:57;;;;;;;6.38;2.20;;;;;;;20.14;31.09;99922.00;5021633;28;20101;-65
2021/09/06 05:51:25;;;;;;;5.20;2.33;;;;;;;20.26;30.93;99920.31;5038522;28;20037;-65
2021/09/06 05:54:12;;;;;;;12.05;3.13;;;;;;;20.27;30.74;99937.31;5043933;28;20041;-65
2021/09/06 05:56:39;;;;;;;7.53;2.08;;;;;;;20.45;30.28;99932.88;5038345;28;20048;-65
2021/09/06 05:59:05;;;;;;;8.70;2.25;;;;;;;20.45;30.05;99940.16;5021576;28;20040;-65
2021/09/06 06:01:33;;;;;;;4.60;2.22;;;;;;;19.93;31.08;99914.16;5038542;28;20054;-65
2021/09/06 06:03:59;;;;;;;6.43;2.30;;;;;;;20.01;30.82;99936.31;5037911;28;20040;-65
2021/09/06 06:06:35;;;;;;;4.93;2.42;;;;;;;20.46;30.49;99939.09;5040529;28;20123;-65
2021/09/06 06:09:03;;;;;;;3.00;2.15;;;;;;;20.55;29.92;99948.63;5071088;28;20037;-64
2021/09/06 06:11:29;;;;;;;4.00;2.10;;;;;;;20.65;30.13;99940.91;5054519;28;20048;-64
2021/09/06 06:13:55;;;;;;;7.45;2.30;;;;;;;20.64;29.76;99952.72;5054288;28;20044;-64
2021/09/06 06:16:21;;;;;;;4.72;2.08;;;;;;;20.82;29.70;99947.47;5037697;28;20114;-65
2021/09/06 06:18:48;;;;;;;6.55;1.88;;;;;;;20.64;28.88;99950.84;5038146;28;20075;-65
2021/09/06 06:21:18;;;;;;;6.40;2.25;;;;;;;20.59;28.15;99930.97;5038658;28;20113;-65
2021/09/06 06:23:53;;;;;;;4.28;1.50;;;;;;;20.77;27.68;99949.97;5055417;28;20041;-65
2021/09/06 06:26:35;;;;;;;4.75;1.70;;;;;;;21.10;27.13;99942.50;5041373;28;20504;-65
2021/09/06 06:29:04;;;;;;;4.60;1.83;;;;;;;21.25;26.96;99948.47;5054379;28;20044;-65
2021/09/06 06:31:31;;;;;;;5.50;1.80;;;;;;;21.43;26.46;99948.50;5070839;28;20037;-65
2021/09/06 06:33:59;;;;;;;4.68;1.90;;;;;;;21.61;26.34;99938.59;5037903;28;20048;-65
2021/09/06 06:36:26;;;;;;;3.83;1.75;;;;;;;21.59;25.62;99950.66;5037472;28;20044;-65
2021/09/06 06:38:53;;;;;;;4.38;1.55;;;;;;;21.77;25.82;99950.75;5037342;28;20040;-65
2021/09/06 06:41:20;;;;;;;2.58;1.70;;;;;;;21.93;25.71;99955.56;5037434;28;20514;-65
2021/09/06 06:43:53;;;;;;;4.60;1.40;;;;;;;21.79;25.52;99947.81;5022748;28;20040;-65
2021/09/06 06:46:19;;;;;;;4.00;1.20;;;;;;;21.67;25.52;99953.06;5020183;28;20071;-65
2021/09/06 06:48:48;;;;;;;2.70;1.40;;;;;;;21.81;25.15;99957.34;5037988;28;20051;-65
2021/09/06 06:51:17;;;;;;;5.00;1.50;;;;;;;22.14;24.52;99963.25;5021278;28;20500;-65
2021/09/06 06:53:45;;;;;;;3.05;1.25;;;;;;;22.30;23.78;99930.19;5087212;28;20420;-65
2021/09/06 06:56:15;;;;;;;2.53;1.33;;;;;;;22.58;23.67;99954.88;5038256;28;20127;-65
2021/09/06 06:58:41;;;;;;;1.88;1.30;;;;;;;22.72;22.93;99956.34;5036569;28;20049;-65
2021/09/06 07:01:10;;;;;;;7.03;4.43;;;;;;;23.05;22.43;99948.56;5053707;28;20118;-65
2021/09/06 07:03:38;;;;;;;4.07;2.45;;;;;;;23.56;22.54;99952.59;5053821;28;20068;-65
2021/09/06 07:06:04;;;;;;;4.80;1.60;;;;;;;23.92;21.90;99957.81;5053237;28;20500;-65
2021/09/06 07:08:31;;;;;;;4.68;1.55;;;;;;;24.01;21.96;99956.41;5036599;28;20139;-65
2021/09/06 07:10:57;;;;;;;4.40;1.65;;;;;;;24.11;21.35;99956.66;5029297;28;20122;-64
2021/09/06 07:13:24;;;;;;;4.63;1.30;;;;;;;24.10;21.83;99955.00;5056650;28;20548;-65
2021/09/06 07:15:51;;;;;;;2.45;1.00;;;;;;;24.47;21.71;99967.22;5090045;28;20044;-68
2021/09/06 07:18:17;;;;;;;2.13;1.50;;;;;;;24.65;20.61;99965.19;5040202;28;20071;-73
2021/09/06 07:20:43;;;;;;;5.55;2.20;;;;;;;24.68;20.78;99958.44;5039585;28;20089;-77
2021/09/06 07:23:10;;;;;;;3.22;1.35;;;;;;;24.88;20.28;99965.09;5056370;28;20082;-72
2021/09/06 07:25:39;;;;;;;7.50;3.30;;;;;;;25.27;19.45;99960.66;5089855;28;20055;-73
2021/09/06 07:28:08;;;;;;;9.63;6.45;;;;;;;25.60;19.78;99955.25;5040616;28;20056;-73
2021/09/06 07:30:34;;;;;;;5.35;1.80;;;;;;;25.73;19.67;99962.25;5039458;28;20094;-73
2021/09/06 07:33:05;;;;;;;3.25;1.85;;;;;;;25.83;19.64;99959.72;5039301;28;20079;-72
2021/09/06 07:35:31;;;;;;;2.83;1.52;;;;;;;25.75;19.38;99960.13;5073796;28;20050;-73
2021/09/06 07:37:57;;;;;;;11.27;2.10;;;;;;;25.62;18.75;99966.72;5039350;28;20044;-74
2021/09/06 07:40:26;;;;;;;8.00;2.80;;;;;;;25.36;18.17;99953.78;5055895;28;20040;-73
2021/09/06 07:42:52;;;;;;;8.00;3.47;;;;;;;25.20;17.89;99959.97;5054082;28;20051;-72
2021/09/06 07:45:19;;;;;;;5.72;2.35;;;;;;;24.98;17.85;99960.94;5070453;28;20046;-71
2021/09/06 07:47:46;;;;;;;6.80;2.78;;;;;;;24.75;17.52;99957.25;5037776;28;20495;-73
2021/09/06 07:50:19;;;;;;;5.47;2.42;;;;;;;24.91;17.54;99957.53;5038761;28;20134;-73
2021/09/06 07:52:46;;;;;;;7.80;2.90;;;;;;;26.62;15.97;99955.69;5037655;28;20493;-73
2021/09/06 07:55:13;;;;;;;9.50;5.47;;;;;;;29.94;13.76;99959.28;5070638;28;20044;-73
2021/09/06 07:57:39;;;;;;;10.27;3.20;;;;;;;33.33;11.18;99965.06;5055538;28;20044;-73
2021/09/06 08:00:06;;;;;;;6.07;2.33;;;;;;;34.27;10.76;99962.91;5056030;28;20500;-73
2021/09/06 08:02:48;;;;;;;4.18;2.22;;;;;;;34.01;10.30;99940.53;5089732;28;20047;-73
2021/09/06 08:05:23;;;;;;;3.53;2.05;;;;;;;35.66;8.51;99949.88;5073890;28;20054;-74
2021/09/06 08:07:50;;;;;;;4.90;1.80;;;;;;;35.91;8.64;99953.97;5073042;28;20558;-73
2021/09/06 08:10:17;;;;;;;9.27;2.50;;;;;;;35.24;8.49;99953.91;5039584;28;20048;-73
2021/09/06 08:12:43;;;;;;;3.53;2.22;;;;;;;33.37;9.53;99951.47;5055763;28;20410;-73
2021/09/06 08:15:10;;;;;;;6.13;2.03;;;;;;;31.82;10.85;99946.78;5055815;28;20507;-73
2021/09/06 08:17:37;;;;;;;4.00;1.67;;;;;;;30.45;11.94;99950.66;5072691;28;20415;-73
2021/09/06 08:20:06;;;;;;;5.75;1.52;;;;;;;29.49;12.71;99949.94;5058529;28;20048;-74
2021/09/06 08:22:33;;;;;;;2.90;1.70;;;;;;;28.33;13.86;99947.94;5043367;28;20064;-73
2021/09/06 08:25:00;;;;;;;4.47;2.00;;;;;;;27.87;14.37;99948.78;5060194;28;20079;-73
2021/09/06 08:27:26;;;;;;;3.67;2.45;;;;;;;27.35;14.31;99945.88;5076403;28;20052;-74
2021/09/06 08:29:52;;;;;;;5.53;3.15;;;;;;;27.14;14.80;99946.72;5060068;28;20460;-66
2021/09/06 08:32:18;;;;;;;7.35;3.33;;;;;;;29.68;12.88;99961.19;5076755;28;20079;-67
2021/09/06 08:34:48;;;;;;;4.15;1.88;;;;;;;32.53;10.90;99961.47;5076508;28;20047;-67
2021/09/06 08:37:16;;;;;;;3.53;1.53;;;;;;;36.34;8.31;99957.78;5093598;28;20040;-67
2021/09/06 08:39:45;;;;;;;1.92;1.50;;;;;;;39.05;7.06;99937.53;5093617;28;20134;-67
2021/09/06 08:42:11;;;;;;;4.60;2.00;;;;;;;38.04;6.91;99955.16;5076224;28;20148;-67
2021/09/06 08:44:37;;;;;;;7.35;3.67;;;;;;;36.72;7.69;99943.09;5075492;28;20044;-69
2021/09/06 08:47:03;;;;;;;3.47;2.13;;;;;;;36.82;7.52;99964.16;5075680;28;20496;-66
2021/09/06 08:49:30;;;;;;;4.55;2.72;;;;;;;37.33;6.89;99952.31;5059399;28;20131;-67
2021/09/06 08:51:59;;;;;;;4.28;1.63;;;;;;;38.92;6.01;99953.28;5060450;28;20105;-66
2021/09/06 08:54:29;;;;;;;4.05;1.50;;;;;;;41.15;5.12;99952.50;5061481;28;20054;-67
2021/09/06 08:56:55;;;;;;;3.67;1.60;;;;;;;40.97;5.26;99951.09;5059281;28;20052;-67
2021/09/06 08:59:21;;;;;;;4.93;2.00;;;;;;;39.60;5.77;99947.22;5058883;28;20044;-67
2021/09/06 09:01:51;;;;;;;3.28;1.60;;;;;;;36.83;7.39;99938.06;5059597;28;20449;-68
2021/09/06 09:04:28;;;;;;;6.72;1.60;;;;;;;34.41;9.03;99936.16;5060841;28;20044;-67
2021/09/06 09:07:25;;;;;;;4.53;2.35;;;;;;;32.71;10.02;99917.78;5076895;28;20131;-67
2021/09/06 09:10:30;;;;;;;5.20;1.83;;;;;;;31.35;11.25;99930.19;5091958;28;20044;-66
2021/09/06 09:13:47;;;;;;;11.63;1.80;;;;;;;30.25;11.96;99947.16;5065552;28;20040;-67
2021/09/06 09:16:19;;;;;;;5.93;1.58;;;;;;;29.28;12.50;99942.81;5093731;28;20050;-68
2021/09/06 09:19:06;;;;;;;3.88;2.00;;;;;;;29.00;13.06;99943.28;5063937;28;20043;-66
2021/09/06 09:21:52;;;;;;;5.70;1.70;;;;;;;28.97;12.89;99916.47;5092451;28;20054;-66
2021/09/06 09:24:23;;;;;;;4.68;1.98;;;;;;;32.04;11.04;99947.16;5076438;28;20040;-67
2021/09/06 09:27:11;;;;;;;2.55;1.35;;;;;;;34.04;9.54;99951.72;5063255;28;20048;-66
2021/09/06 09:29:54;;;;;;;1.88;1.67;;;;;;;35.45;8.43;99951.53;5077083;28;20040;-66
2021/09/06 09:32:35;;;;;;;2.40;1.58;;;;;;;36.23;7.64;99937.84;5059954;28;20040;-66
2021/09/06 09:35:09;;;;;;;4.80;1.83;;;;;;;38.46;6.94;99934.75;5059780;28;20158;-66
2021/09/06 09:37:36;;;;;;;3.47;1.80;;;;;;;40.90;5.68;99948.94;5075245;28;20040;-66
2021/09/06 09:40:10;;;;;;;3.83;1.63;;;;;;;43.28;4.48;99945.34;5091802;28;20044;-67
2021/09/06 09:42:47;;;;;;;3.25;1.58;;;;;;;45.35;3.01;99940.53;5092943;28;20078;-66
2021/09/06 09:45:23;;;;;;;3.30;1.45;;;;;;;46.98;2.96;99949.38;5075144;28;20174;-67
2021/09/06 09:48:27;;;;;;;4.78;1.50;;;;;;;48.20;2.27;99948.16;5066948;28;20040;-67
2021/09/06 09:50:53;;;;;;;1.55;1.20;;;;;;;48.55;2.05;99937.69;5041442;28;20096;-67
2021/09/06 09:53:21;;;;;;;5.03;1.55;;;;;;;48.13;1.97;99934.09;5091516;28;20074;-68
2021/09/06 09:55:47;;;;;;;6.25;1.58;;;;;;;47.12;2.08;99930.53;5093018;28;20130;-67
2021/09/06 09:58:16;;;;;;;2.08;1.40;;;;;;;44.61;3.14;99919.84;5058017;28;20058;-67
2021/09/06 10:00:46;;;;;;;5.47;1.52;;;;;;;44.90;3.10;99923.09;5058335;28;20071;-66
2021/09/06 10:03:12;;;;;;;6.10;1.65;;;;;;;43.62;3.73;99921.25;5058374;28;20458;-66
2021/09/06 10:05:39;;;;;;;4.70;1.85;;;;;;;42.39;3.89;99924.09;5074525;28;20201;-67
2021/09/06 10:08:15;;;;;;;5.13;2.10;;;;;;;43.38;3.88;99927.16;5057669;28;20097;-65
2021/09/06 10:10:41;;;;;;;3.50;1.70;;;;;;;43.59;3.51;99936.00;5074382;28;20067;-67
2021/09/06 10:13:13;;;;;;;3.05;2.05;;;;;;;43.88;3.92;99933.41;5074248;28;20050;-67
2021/09/06 10:15:42;;;;;;;3.25;1.58;;;;;;;43.10;4.21;99924.59;5074326;28;20458;-67
2021/09/06 10:18:24;;;;;;;6.65;2.30;;;;;;;40.66;4.94;99912.69;5074937;28;20119;-76
2021/09/06 10:20:55;;;;;;;7.45;1.55;;;;;;;38.60;5.90;99910.38;5092619;28;20044;-67
2021/09/06 10:23:25;;;;;;;2.58;1.90;;;;;;;36.49;7.10;99910.31;5090938;28;20048;-68
2021/09/06 10:25:55;;;;;;;1.75;1.25;;;;;;;36.18;7.37;99909.53;5075291;28;20446;-68
2021/09/06 10:28:31;;;;;;;4.13;1.67;;;;;;;37.11;6.92;99923.63;5074184;28;20139;-67
2021/09/06 10:30:59;;;;;;;3.88;1.67;;;;;;;37.33;6.81;99922.66;5090404;28;20039;-67
2021/09/06 10:33:26;;;;;;;3.35;1.50;;;;;;;37.41;6.40;99924.63;5090339;28;20176;-66
2021/09/06 10:36:17;;;;;;;2.15;1.40;;;;;;;38.68;5.65;99920.63;5073678;28;20036;-67
2021/09/06 10:38:52;;;;;;;2.05;1.45;;;;;;;40.38;4.46;99925.72;5056933;28;20078;-67
2021/09/06 10:41:23;;;;;;;2.40;1.40;;;;;;;41.23;4.21;99935.63;5088921;28;20050;-67
2021/09/06 10:43:55;;;;;;;2.28;1.48;;;;;;;41.75;3.97;99916.81;5056847;28;20051;-67
2021/09/06 10:46:24;;;;;;;2.67;1.70;;;;;;;42.76;3.37;99911.41;5073114;28;20036;-68
2021/09/06 10:48:50;;;;;;;4.28;1.48;;;;;;;43.61;3.08;99922.47;5089886;28;20048;-68
2021/09/06 10:51:25;;;;;;;3.30;1.48;;;;;;;44.63;2.49;99908.25;5056664;28;20063;-68
2021/09/06 10:53:55;;;;;;;1.63;1.30;;;;;;;44.62;2.36;99912.25;5089910;28;20058;-68
2021/09/06 10:56:26;;;;;;;2.65;1.40;;;;;;;44.52;2.58;99913.69;5089328;28;20197;-68
2021/09/06 10:58:54;;;;;;;4.28;1.52;;;;;;;43.89;2.96;99914.59;5089997;28;20047;-68
2021/09/06 11:01:21;;;;;;;6.78;1.63;;;;;;;42.39;3.21;99908.13;5072690;28;20048;-68
2021/09/06 11:03:50;;;;;;;1.80;1.25;;;;;;;42.51;3.67;99905.22;5057126;28;20040;-80
2021/09/06 11:06:25;;;;;;;3.08;1.48;;;;;;;41.70;3.86;99902.31;5057374;28;20155;-77
2021/09/06 11:08:53;;;;;;;3.03;1.98;;;;;;;41.89;4.22;99901.63;5071991;28;20044;-77
2021/09/06 11:11:19;;;;;;;5.00;1.80;;;;;;;42.32;3.52;99896.00;5038532;28;20542;-76
2021/09/06 11:13:48;;;;;;;5.82;1.42;;;;;;;42.07;3.82;99902.91;5054733;28;20051;-76
2021/09/06 11:16:16;;;;;;;2.13;1.60;;;;;;;41.86;3.90;99896.75;5054187;28;20074;-76
2021/09/06 11:18:44;;;;;;;2.38;1.60;;;;;;;40.62;4.91;99892.28;5070924;28;20542;-76
2021/09/06 11:21:10;;;;;;;2.35;1.55;;;;;;;38.55;6.03;99896.69;5053881;28;21028;-76
2021/09/06 11:23:38;;;;;;;3.95;2.00;;;;;;;37.49;6.73;99886.94;5071968;28;20050;-77
2021/09/06 11:26:06;;;;;;;4.45;1.50;;;;;;;36.28;7.16;99882.38;5057322;28;20056;-77
2021/09/06 11:28:34;;;;;;;6.53;1.92;;;;;;;35.90;7.56;99874.91;5089459;28;20496;-76
2021/09/06 11:31:00;;;;;;;4.00;1.80;;;;;;;34.66;8.31;99880.47;5056158;28;20065;-75
2021/09/06 11:33:30;;;;;;;2.03;1.70;;;;;;;34.01;8.43;99877.91;5039645;28;20075;-76
2021/09/06 11:35:56;;;;;;;3.13;1.50;;;;;;;33.20;9.13;99865.88;5056209;28;20044;-76
2021/09/06 11:38:21;;;;;;;4.47;1.73;;;;;;;32.83;9.51;99871.38;5039294;28;20518;-75
2021/09/06 11:40:55;;;;;;;4.60;1.60;;;;;;;32.49;9.09;99875.13;5039641;28;20043;-75
2021/09/06 11:43:23;;;;;;;4.85;1.52;;;;;;;31.69;9.07;99872.47;5072674;28;20054;-74
2021/09/06 11:45:58;;;;;;;2.47;1.40;;;;;;;31.54;8.89;99867.94;5039463;28;20044;-75
2021/09/06 11:48:24;;;;;;;4.38;1.23;;;;;;;30.84;9.11;99865.75;5039288;28;20463;-75